X  CloseMetar Aviation Weather Data     YMAV Avalon

Temperature

7°C Temperature

7°C Dewpoint

100% Humidity



Wind

13 KM/H

 8 MPH

 4 M/S

 7 KTS



360°
Due North
Current Conditions

Overcast Overcast
Pressure 1023.92 (hPa) - 30.24 (in)
Visibility 3.7 (mi) - 6 (km)
Airport
Airport-code YMAV

Location Avalon 14 (km)

Metar:
YMAV 251747Z AUTO 36007KT 6000 // OVC005 07/07 Q1024 RF00.0/000.0

Time: 26-05-2020 03:47